Time;durP1;ratioP1;P1;durP2;ratioP2;P2;SDS_P1;SDS_P2;PMS_P1;PMS_P2;Temp;Humidity;BMP_temperature;BMP_pressure;BME280_temperature;BME280_humidity;BME280_pressure;Samples;Min_cycle;Max_cycle;Signal;HPM_P1;HPM_P2
2022/07/09 00:00:06;;;;;;;;;6.00;6.00;;;;;24.60;40.65;102140.78;4895825;29;45500;-80
2022/07/09 00:02:31;;;;;;;;;5.25;5.00;;;;;24.53;41.04;102142.41;4895636;28;45617;-80
2022/07/09 00:04:56;;;;;;;;;7.00;5.75;;;;;24.48;40.90;102139.38;4877772;29;45914;-80
2022/07/09 00:07:22;;;;;;;;;5.50;5.50;;;;;24.44;41.47;102144.22;4893202;29;46361;-78
2022/07/09 00:09:51;;;;;;;;;4.00;4.00;;;;;24.42;41.38;102143.53;4895953;29;45805;-80
2022/07/09 00:12:17;;;;;;;;;6.50;6.00;;;;;24.36;41.75;102146.03;4893594;28;47301;-79
2022/07/09 00:14:42;;;;;;;;;6.00;6.00;;;;;24.33;41.15;102144.53;4898060;29;45755;-80
2022/07/09 00:17:08;;;;;;;;;6.50;5.50;;;;;24.28;41.69;102138.81;4880190;29;45782;-80
2022/07/09 00:19:33;;;;;;;;;8.00;7.00;;;;;24.16;41.61;102127.50;4896387;28;45497;-78
2022/07/09 00:21:59;;;;;;;;;6.75;6.75;;;;;24.23;41.94;102147.34;4896009;29;45792;-79
2022/07/09 00:24:25;;;;;;;;;6.75;6.25;;;;;24.14;41.70;102132.16;4890857;28;46297;-80
2022/07/09 00:26:50;;;;;;;;;6.00;5.75;;;;;24.14;41.69;102145.56;4895091;28;45929;-79
2022/07/09 00:29:15;;;;;;;;;8.75;7.00;;;;;24.11;42.29;102131.66;4895339;29;45832;-79
2022/07/09 00:31:41;;;;;;;;;7.00;6.00;;;;;24.06;42.60;102121.44;4895264;28;45730;-79
2022/07/09 00:34:06;;;;;;;;;5.50;5.25;;;;;23.94;42.56;102109.31;4895095;28;46210;-79
2022/07/09 00:36:31;;;;;;;;;7.75;7.00;;;;;23.96;42.29;102115.38;4895654;28;46115;-79
2022/07/09 00:38:57;;;;;;;;;5.75;5.75;;;;;24.02;41.97;102127.28;4894928;29;45878;-80
2022/07/09 00:41:22;;;;;;;;;9.75;8.75;;;;;24.00;42.40;102124.75;4894743;28;45708;-79
2022/07/09 00:43:49;;;;;;;;;9.00;7.75;;;;;23.99;42.39;102128.41;4894617;28;46186;-79
2022/07/09 00:46:16;;;;;;;;;13.00;13.00;;;;;23.97;42.42;102133.09;4895022;29;45859;-80
2022/07/09 00:48:42;;;;;;;;;11.75;10.25;;;;;23.96;42.70;102128.75;4896275;29;45685;-80
2022/07/09 00:51:09;;;;;;;;;12.75;12.00;;;;;23.94;43.20;102129.88;4881440;29;46674;-79
2022/07/09 00:53:35;;;;;;;;;8.75;8.50;;;;;23.89;42.86;102135.72;4897040;28;47403;-80
2022/07/09 00:56:02;;;;;;;;;12.00;10.00;;;;;23.75;43.44;102117.59;4898274;28;45721;-80
2022/07/09 00:58:28;;;;;;;;;12.00;11.75;;;;;23.72;43.22;102104.50;4894462;28;45759;-80
2022/07/09 01:00:55;;;;;;;;;14.00;11.75;;;;;23.75;43.42;102122.94;4898434;28;46731;-79
2022/07/09 01:03:23;;;;;;;;;9.75;9.00;;;;;23.75;43.26;102128.28;4897975;28;46307;-80
2022/07/09 01:05:49;;;;;;;;;11.25;8.50;;;;;23.63;43.12;102111.66;4896159;28;45858;-79
2022/07/09 01:08:14;;;;;;;;;10.75;9.00;;;;;23.60;43.57;102103.91;4897814;28;45734;-79
2022/07/09 01:10:40;;;;;;;;;8.75;7.75;;;;;23.67;43.46;102118.34;4898013;28;46560;-79
2022/07/09 01:13:06;;;;;;;;;8.75;8.00;;;;;23.67;43.65;102118.34;4898115;28;45713;-79
2022/07/09 01:15:32;;;;;;;;;9.25;9.25;;;;;23.64;43.21;102112.50;4892570;28;45816;-78
2022/07/09 01:17:58;;;;;;;;;8.00;8.00;;;;;23.58;43.36;102111.28;4891873;29;46791;-78
2022/07/09 01:20:31;;;;;;;;;8.00;8.00;;;;;23.60;44.05;102116.44;4897802;28;46081;-78
2022/07/09 01:22:57;;;;;;;;;9.25;8.00;;;;;23.58;43.47;102105.09;4897641;28;46222;-78
2022/07/09 01:25:45;;;;;;;;;9.50;8.25;;;;;23.56;43.99;102104.38;4897636;29;46014;-79
2022/07/09 01:28:11;;;;;;;;;7.25;7.25;;;;;23.48;43.60;102099.00;4895697;28;45776;-79
2022/07/09 01:30:38;;;;;;;;;6.00;6.00;;;;;23.48;43.77;102104.34;4898224;29;45825;-80
2022/07/09 01:33:04;;;;;;;;;8.00;8.00;;;;;23.48;44.00;102101.69;4892830;29;46483;-79
2022/07/09 01:35:30;;;;;;;;;7.00;7.00;;;;;23.46;44.22;102104.50;4897101;28;45519;-79
2022/07/09 01:37:56;;;;;;;;;7.00;6.75;;;;;23.43;43.87;102099.41;4894942;28;45596;-78
2022/07/09 01:40:22;;;;;;;;;6.75;6.00;;;;;23.37;44.24;102094.72;4897848;28;46337;-79
2022/07/09 01:42:48;;;;;;;;;9.00;7.75;;;;;23.37;43.62;102098.19;4897062;29;47551;-79
2022/07/09 01:45:16;;;;;;;;;6.00;6.00;;;;;23.32;44.14;102087.13;4897399;28;47213;-78
2022/07/09 01:47:42;;;;;;;;;6.00;5.50;;;;;23.30;44.02;102090.97;4897465;28;46099;-79
2022/07/09 01:50:08;;;;;;;;;6.00;6.00;;;;;23.32;44.48;102102.38;4882659;29;45774;-79
2022/07/09 01:52:34;;;;;;;;;6.75;6.00;;;;;23.23;44.41;102090.75;4880521;29;48020;-78
2022/07/09 01:55:00;;;;;;;;;6.75;6.75;;;;;23.24;44.86;102088.91;4896727;28;45725;-81
2022/07/09 01:57:26;;;;;;;;;6.75;6.25;;;;;23.25;44.71;102086.09;4897289;28;45595;-79
2022/07/09 01:59:51;;;;;;;;;7.00;7.00;;;;;23.13;44.24;102065.94;4896663;28;46604;-80
2022/07/09 02:02:18;;;;;;;;;6.00;6.00;;;;;23.16;44.21;102076.31;4896749;28;46162;-79
2022/07/09 02:04:45;;;;;;;;;6.00;6.00;;;;;23.17;44.92;102069.13;4896998;28;46243;-79
2022/07/09 02:07:11;;;;;;;;;6.00;5.75;;;;;23.21;44.29;102074.00;4895985;28;45832;-80
2022/07/09 02:09:36;;;;;;;;;5.50;5.50;;;;;23.21;44.59;102082.03;4876950;29;47809;-79
2022/07/09 02:12:02;;;;;;;;;7.50;7.00;;;;;23.12;44.63;102050.03;4896558;28;46260;-77
2022/07/09 02:14:27;;;;;;;;;7.25;6.50;;;;;23.21;44.41;102070.50;4897553;28;45711;-79
2022/07/09 02:16:53;;;;;;;;;7.25;7.00;;;;;23.07;44.85;102053.19;4901657;28;45780;-78
2022/07/09 02:19:18;;;;;;;;;6.75;6.25;;;;;23.17;44.53;102063.78;4904100;28;47397;-78
2022/07/09 02:21:44;;;;;;;;;6.75;5.00;;;;;23.14;44.24;102061.44;4897503;28;45819;-80
2022/07/09 02:24:09;;;;;;;;;6.50;6.00;;;;;23.08;44.21;102052.19;4897225;28;45837;-80
2022/07/09 02:26:34;;;;;;;;;7.00;7.00;;;;;23.11;44.48;102051.03;4900281;28;46790;-79
2022/07/09 02:29:01;;;;;;;;;8.00;7.00;;;;;23.09;44.94;102045.00;4883329;29;46412;-79
2022/07/09 02:31:26;;;;;;;;;6.50;6.25;;;;;23.14;44.47;102056.91;4900882;28;46080;-79
2022/07/09 02:33:52;;;;;;;;;8.00;7.50;;;;;23.08;45.12;102041.50;4900137;28;46265;-80
2022/07/09 02:36:20;;;;;;;;;7.75;7.75;;;;;23.13;44.57;102052.56;4896422;28;45871;-79
2022/07/09 02:38:45;;;;;;;;;8.00;8.00;;;;;23.12;44.77;102053.53;4896332;28;46562;-78
2022/07/09 02:41:11;;;;;;;;;8.00;7.00;;;;;23.11;45.09;102053.69;4890413;28;45654;-80
2022/07/09 02:43:36;;;;;;;;;7.25;7.00;;;;;23.07;44.78;102046.97;4896593;28;46038;-80
2022/07/09 02:46:03;;;;;;;;;8.00;7.00;;;;;23.02;45.24;102040.28;4896910;29;45687;-79
2022/07/09 02:48:29;;;;;;;;;9.00;7.50;;;;;23.02;45.27;102042.09;4896227;29;46592;-80
2022/07/09 02:50:55;;;;;;;;;7.50;7.00;;;;;23.04;45.04;102050.81;4896825;28;46190;-79
2022/07/09 02:53:20;;;;;;;;;6.50;6.00;;;;;23.00;45.45;102050.28;4896526;28;45682;-79
2022/07/09 02:55:46;;;;;;;;;7.75;7.25;;;;;23.00;45.08;102052.09;4896264;28;45551;-78
2022/07/09 02:58:11;;;;;;;;;7.25;6.75;;;;;22.98;45.41;102054.13;4895388;28;46169;-79
2022/07/09 03:00:41;;;;;;;;;9.00;7.75;;;;;22.99;45.57;102056.63;4896525;28;46314;-79
2022/07/09 03:03:07;;;;;;;;;6.50;6.50;;;;;22.89;44.97;102037.16;4897107;28;46033;-79
2022/07/09 03:05:33;;;;;;;;;6.00;6.00;;;;;22.89;45.63;102047.00;4895972;28;45675;-79
2022/07/09 03:07:59;;;;;;;;;8.25;8.00;;;;;22.95;45.82;102062.41;4895780;29;45797;-78
2022/07/09 03:10:24;;;;;;;;;6.75;6.00;;;;;22.91;45.38;102051.22;4879318;29;45647;-79
2022/07/09 03:12:50;;;;;;;;;8.25;8.00;;;;;22.87;45.76;102047.16;4893812;28;45593;-79
2022/07/09 03:15:17;;;;;;;;;7.00;7.00;;;;;22.87;45.16;102057.88;4890603;28;45616;-79
2022/07/09 03:17:47;;;;;;;;;7.50;7.50;;;;;22.89;45.88;102069.22;4895691;29;46553;-79
2022/07/09 03:20:14;;;;;;;;;7.00;6.50;;;;;22.85;45.86;102067.00;4895814;28;46292;-78
2022/07/09 03:22:40;;;;;;;;;7.50;6.25;;;;;22.74;45.70;102057.41;4879327;29;45719;-78
2022/07/09 03:25:06;;;;;;;;;7.00;7.00;;;;;22.70;46.42;102060.50;4896184;28;46129;-78
2022/07/09 03:27:32;;;;;;;;;7.25;7.25;;;;;22.67;46.32;102063.47;4896231;29;47686;-78
2022/07/09 03:29:59;;;;;;;;;6.00;6.00;;;;;22.63;46.07;102062.09;4896022;28;45789;-79
2022/07/09 03:32:24;;;;;;;;;8.25;8.00;;;;;22.52;46.44;102055.97;4895742;28;45758;-79
2022/07/09 03:34:52;;;;;;;;;5.00;4.00;;;;;22.49;46.58;102060.78;4895688;28;45933;-78
2022/07/09 03:37:18;;;;;;;;;7.25;7.00;;;;;22.44;46.35;102069.25;4895689;28;45675;-78
2022/07/09 03:39:43;;;;;;;;;7.00;7.00;;;;;22.37;46.48;102072.66;4895467;28;46054;-78
2022/07/09 03:42:08;;;;;;;;;5.00;5.00;;;;;22.33;47.21;102073.97;4895838;28;45599;-77
2022/07/09 03:44:34;;;;;;;;;8.75;6.00;;;;;22.25;47.26;102073.84;4895782;28;45572;-80
2022/07/09 03:47:00;;;;;;;;;7.75;7.25;;;;;22.17;46.92;102071.94;4895605;28;46170;-78
2022/07/09 03:49:25;;;;;;;;;8.00;7.25;;;;;22.11;47.18;102059.19;4893033;29;45855;-79
2022/07/09 03:51:51;;;;;;;;;6.00;6.00;;;;;22.06;47.63;102062.31;4896068;28;45821;-79
2022/07/09 03:54:16;;;;;;;;;7.00;7.00;;;;;22.05;47.34;102071.28;4895337;29;45734;-79
2022/07/09 03:56:42;;;;;;;;;6.75;6.00;;;;;21.99;47.43;102074.56;4895325;28;46580;-79
2022/07/09 03:59:07;;;;;;;;;7.50;6.50;;;;;21.97;48.09;102089.06;4895332;29;46143;-80
2022/07/09 04:01:33;;;;;;;;;6.00;6.00;;;;;21.95;47.98;102091.00;4878904;29;45818;-79
2022/07/09 04:03:59;;;;;;;;;7.75;7.50;;;;;21.82;48.03;102083.28;4892911;28;45883;-80
2022/07/09 04:06:25;;;;;;;;;7.75;7.75;;;;;21.75;48.10;102085.69;4893792;28;47057;-80
2022/07/09 04:08:50;;;;;;;;;8.25;7.00;;;;;21.69;48.59;102080.13;4896160;28;46140;-79
2022/07/09 04:11:15;;;;;;;;;8.00;7.75;;;;;21.72;48.76;102093.16;4878574;29;45705;-80
2022/07/09 04:13:41;;;;;;;;;6.75;6.25;;;;;21.68;48.25;102092.63;4895335;28;46020;-80
2022/07/09 04:16:07;;;;;;;;;7.00;6.75;;;;;21.64;48.54;102095.72;4879117;29;47540;-78
2022/07/09 04:18:34;;;;;;;;;7.50;7.50;;;;;21.64;48.97;102101.91;4895643;28;46667;-79
2022/07/09 04:20:59;;;;;;;;;10.00;7.25;;;;;21.58;48.43;102097.16;4878883;29;46056;-78
2022/07/09 04:23:25;;;;;;;;;7.00;7.00;;;;;21.59;48.90;102103.31;4891871;29;45550;-78
2022/07/09 04:25:50;;;;;;;;;8.00;7.75;;;;;21.54;48.63;102101.06;4898735;28;46721;-79
2022/07/09 04:28:18;;;;;;;;;7.00;6.25;;;;;21.36;49.18;102084.13;4898562;28;45778;-79
2022/07/09 04:30:43;;;;;;;;;8.50;8.50;;;;;21.32;49.22;102083.56;4881897;29;46001;-80
2022/07/09 04:33:09;;;;;;;;;8.00;8.00;;;;;21.39;49.05;102098.97;4899042;28;45868;-80
2022/07/09 04:35:38;;;;;;;;;8.50;6.75;;;;;21.35;49.31;102093.09;4898487;28;46180;-80
2022/07/09 04:38:04;;;;;;;;;6.75;6.50;;;;;21.37;49.15;102088.47;4898211;28;46279;-80
2022/07/09 04:40:30;;;;;;;;;9.50;9.50;;;;;21.37;49.49;102098.31;4897849;28;45586;-79
2022/07/09 04:42:55;;;;;;;;;8.75;8.50;;;;;21.25;49.38;102084.28;4898549;28;45607;-79
2022/07/09 04:45:21;;;;;;;;;7.00;6.75;;;;;21.24;49.41;102082.59;4898420;28;45731;-79
2022/07/09 04:47:46;;;;;;;;;7.75;7.75;;;;;21.29;49.39;102091.00;4897429;29;46260;-79
2022/07/09 04:50:12;;;;;;;;;9.00;8.00;;;;;21.27;49.83;102088.47;4898784;28;45665;-79
2022/07/09 04:52:38;;;;;;;;;8.50;6.75;;;;;21.25;49.71;102089.63;4898380;28;46029;-79
2022/07/09 04:55:04;;;;;;;;;9.50;8.50;;;;;21.10;49.88;102075.00;4898506;28;46060;-78
2022/07/09 04:57:30;;;;;;;;;8.25;8.25;;;;;21.13;50.03;102082.72;4892886;28;45836;-79
2022/07/09 05:00:01;;;;;;;;;7.75;7.75;;;;;21.10;50.23;102077.69;4898119;28;45833;-80
2022/07/09 05:02:27;;;;;;;;;7.00;7.00;;;;;21.04;49.78;102092.41;4902080;28;45593;-80
2022/07/09 05:04:52;;;;;;;;;9.25;8.00;;;;;21.05;50.06;102085.25;4897721;29;45777;-79
2022/07/09 05:07:18;;;;;;;;;9.00;8.00;;;;;21.00;50.06;102090.97;4897698;28;46588;-80
2022/07/09 05:09:43;;;;;;;;;8.25;7.50;;;;;20.94;50.22;102086.25;4880901;29;46010;-80
2022/07/09 05:12:10;;;;;;;;;7.50;7.00;;;;;20.99;50.20;102099.97;4898294;28;45896;-79
2022/07/09 05:14:37;;;;;;;;;8.50;8.50;;;;;20.87;50.32;102085.94;4897327;28;46784;-79
2022/07/09 05:17:02;;;;;;;;;7.50;7.00;;;;;20.96;50.68;102100.25;4898179;28;45543;-80
2022/07/09 05:19:28;;;;;;;;;8.25;8.00;;;;;20.81;50.52;102081.19;4897785;28;45698;-79
2022/07/09 05:21:53;;;;;;;;;9.25;7.25;;;;;20.78;50.58;102085.94;4898110;28;45495;-79
2022/07/09 05:24:18;;;;;;;;;9.00;8.75;;;;;20.83;50.91;102097.03;4880072;29;46884;-79
2022/07/09 05:26:44;;;;;;;;;11.00;9.50;;;;;20.76;50.93;102094.06;4897761;28;45720;-79
2022/07/09 05:29:09;;;;;;;;;10.50;10.50;;;;;20.72;50.84;102090.00;4897616;28;45754;-79
2022/07/09 05:31:34;;;;;;;;;7.75;7.75;;;;;20.75;51.00;102096.88;4895964;28;45844;-79
2022/07/09 05:34:00;;;;;;;;;11.00;10.00;;;;;20.74;50.84;102096.03;4899239;28;46282;-80
2022/07/09 05:36:28;;;;;;;;;10.50;10.00;;;;;20.73;51.08;102086.34;4897548;28;46469;-80
2022/07/09 05:38:54;;;;;;;;;8.25;8.25;;;;;20.74;50.82;102090.69;4897549;28;45850;-77
2022/07/09 05:41:19;;;;;;;;;7.75;7.75;;;;;20.73;51.52;102082.88;4897877;28;45560;-79
2022/07/09 05:43:44;;;;;;;;;8.75;8.75;;;;;20.75;51.40;102091.53;4897276;28;45861;-79
2022/07/09 05:46:10;;;;;;;;;8.00;8.00;;;;;20.77;51.35;102095.75;4897297;28;45721;-79
2022/07/09 05:48:35;;;;;;;;;11.00;10.75;;;;;20.70;51.18;102075.13;4896099;29;46099;-78
2022/07/09 05:51:01;;;;;;;;;9.50;9.50;;;;;20.80;51.31;102083.97;4897606;28;45715;-77
2022/07/09 05:53:26;;;;;;;;;10.50;10.50;;;;;20.78;51.39;102075.28;4896760;28;45780;-78
2022/07/09 05:55:51;;;;;;;;;9.50;9.25;;;;;20.81;51.18;102078.50;4897446;28;46061;-78
2022/07/09 05:58:17;;;;;;;;;9.75;9.25;;;;;20.93;51.34;102098.72;4880017;29;45630;-79
2022/07/09 06:00:42;;;;;;;;;10.75;9.25;;;;;20.97;51.25;102096.59;4897167;28;45695;-79
2022/07/09 06:03:07;;;;;;;;;9.50;9.50;;;;;21.04;51.34;102104.88;4897274;28;45502;-78
2022/07/09 06:05:33;;;;;;;;;12.50;10.25;;;;;21.03;50.98;102089.88;4891595;28;45528;-79
2022/07/09 06:07:58;;;;;;;;;11.75;11.75;;;;;21.13;51.11;102104.88;4879204;29;46017;-79
2022/07/09 06:10:24;;;;;;;;;12.50;11.00;;;;;21.15;51.17;102094.13;4897139;28;45561;-78
2022/07/09 06:12:49;;;;;;;;;12.50;11.00;;;;;21.20;50.80;102098.03;4897183;28;45965;-78
2022/07/09 06:15:15;;;;;;;;;12.25;10.75;;;;;21.12;51.08;102076.53;4896209;29;46372;-78
2022/07/09 06:17:40;;;;;;;;;13.50;11.50;;;;;21.22;51.08;102097.88;4896718;28;47086;-77
2022/07/09 06:20:06;;;;;;;;;14.00;13.00;;;;;21.30;50.94;102100.69;4891456;28;45800;-78
2022/07/09 06:22:32;;;;;;;;;13.75;13.50;;;;;21.26;51.13;102085.97;4896108;28;46915;-78
2022/07/09 06:24:57;;;;;;;;;12.50;11.50;;;;;21.35;50.54;102093.94;4891642;28;46961;-78
2022/07/09 06:27:23;;;;;;;;;12.75;11.50;;;;;21.35;50.98;102091.28;4889310;28;45705;-79
2022/07/09 06:29:49;;;;;;;;;10.00;10.00;;;;;21.42;50.96;102102.22;4893401;28;45836;-78
2022/07/09 06:32:14;;;;;;;;;13.50;10.25;;;;;21.37;50.97;102093.81;4891113;28;46037;-79
2022/07/09 06:34:39;;;;;;;;;12.75;11.25;;;;;21.39;50.63;102088.31;4899161;28;45814;-78
2022/07/09 06:37:05;;;;;;;;;14.25;12.50;;;;;21.43;50.64;102089.75;4895531;28;45528;-78
2022/07/09 06:39:46;;;;;;;;;11.00;11.00;;;;;21.54;50.42;102095.72;4891362;28;45956;-78
2022/07/09 06:42:13;;;;;;;;;15.25;15.00;;;;;21.49;50.49;102078.47;4895001;28;46439;-78
2022/07/09 06:44:38;;;;;;;;;11.50;11.50;;;;;21.58;50.74;102097.16;4896700;28;46300;-78
2022/07/09 06:47:05;;;;;;;;;12.50;12.25;;;;;21.64;50.19;102093.91;4899483;28;46124;-78
2022/07/09 06:49:31;;;;;;;;;13.75;10.50;;;;;21.70;49.97;102103.97;4879622;28;46141;-77
2022/07/09 06:51:57;;;;;;;;;13.00;11.25;;;;;21.73;50.33;102100.19;4887251;28;46598;-79
2022/07/09 06:54:23;;;;;;;;;11.50;11.50;;;;;21.71;50.26;102091.47;4896108;28;45711;-79
2022/07/09 06:56:48;;;;;;;;;11.00;11.00;;;;;21.80;50.14;102108.47;4894420;28;45840;-78
2022/07/09 06:59:14;;;;;;;;;12.50;10.50;;;;;21.73;50.26;102089.50;4896406;28;45606;-79
2022/07/09 07:01:40;;;;;;;;;13.25;12.25;;;;;21.80;50.34;102079.09;4895443;28;46681;-79
2022/07/09 07:04:06;;;;;;;;;9.75;9.25;;;;;21.93;50.04;102100.94;4895192;29;46312;-79
2022/07/09 07:06:32;;;;;;;;;13.25;13.00;;;;;21.89;49.60;102092.41;4893977;29;45897;-79
2022/07/09 07:08:57;;;;;;;;;13.25;13.25;;;;;21.98;49.83;102096.03;4895423;29;45889;-79
2022/07/09 07:11:23;;;;;;;;;12.25;12.00;;;;;22.01;49.63;102093.09;4896833;29;46365;-79
2022/07/09 07:13:48;;;;;;;;;10.00;9.25;;;;;22.06;49.60;102094.34;4887179;28;45734;-79
2022/07/09 07:16:14;;;;;;;;;10.50;10.00;;;;;22.09;49.69;102090.53;4897435;28;45746;-79
2022/07/09 07:18:39;;;;;;;;;3.25;2.50;;;;;22.10;49.54;102093.06;4879369;29;46085;-79
2022/07/09 07:21:05;;;;;;;;;11.50;10.75;;;;;22.13;49.72;102087.41;4896723;28;46483;-79
2022/07/09 07:23:33;;;;;;;;;13.25;13.25;;;;;22.15;49.58;102089.94;4894869;28;45897;-80
2022/07/09 07:25:59;;;;;;;;;12.25;11.50;;;;;22.14;49.71;102083.75;4895737;28;45528;-79
2022/07/09 07:28:25;;;;;;;;;11.25;11.00;;;;;22.23;49.24;102091.88;4895128;29;45781;-76
2022/07/09 07:30:50;;;;;;;;;11.00;10.00;;;;;22.22;49.46;102085.69;4894001;29;45625;-78
2022/07/09 07:33:16;;;;;;;;;10.50;10.00;;;;;22.30;49.40;102096.44;4895718;28;46340;-79
2022/07/09 07:35:41;;;;;;;;;10.00;10.00;;;;;22.29;49.48;102092.13;4895565;28;45794;-79
2022/07/09 07:38:07;;;;;;;;;11.00;10.50;;;;;22.28;49.12;102074.41;4893852;28;45868;-79
2022/07/09 07:40:32;;;;;;;;;10.50;9.75;;;;;22.41;48.91;102095.41;4895545;29;45809;-78
2022/07/09 07:42:58;;;;;;;;;11.00;10.00;;;;;22.37;48.75;102088.69;4895093;28;45818;-79
2022/07/09 07:45:23;;;;;;;;;8.50;8.50;;;;;22.45;48.91;102091.47;4877917;29;45861;-80
2022/07/09 07:47:49;;;;;;;;;11.50;11.25;;;;;22.43;48.92;102085.44;4895010;29;45661;-80
2022/07/09 07:50:14;;;;;;;;;11.50;10.75;;;;;22.50;48.75;102095.38;4894715;28;45903;-79
2022/07/09 07:52:40;;;;;;;;;9.75;9.00;;;;;22.56;48.64;102088.59;4896102;28;46416;-79
2022/07/09 07:55:05;;;;;;;;;9.50;9.00;;;;;22.53;48.84;102084.38;4896325;28;45642;-79
2022/07/09 07:57:31;;;;;;;;;11.00;9.00;;;;;22.63;48.31;102084.31;4895719;28;46276;-79
2022/07/09 07:59:56;;;;;;;;;10.75;10.50;;;;;22.69;48.69;102083.69;4894660;28;46686;-80
2022/07/09 08:02:21;;;;;;;;;10.00;9.50;;;;;22.72;48.35;102077.25;4896012;28;46128;-80
2022/07/09 08:04:47;;;;;;;;;12.50;11.00;;;;;22.75;48.03;102083.13;4877736;29;46227;-80
2022/07/09 08:07:12;;;;;;;;;8.75;8.75;;;;;22.77;48.07;102075.81;4878754;29;45916;-80
2022/07/09 08:09:38;;;;;;;;;10.75;9.50;;;;;22.78;48.34;102074.78;4894882;29;46612;-79
2022/07/09 08:12:03;;;;;;;;;10.75;9.25;;;;;22.85;48.15;102083.06;4878750;29;48292;-80
2022/07/09 08:14:29;;;;;;;;;9.25;8.50;;;;;22.91;47.54;102075.28;4895709;29;45751;-80
2022/07/09 08:16:54;;;;;;;;;10.00;10.00;;;;;22.99;47.52;102085.22;4879151;29;45594;-79
2022/07/09 08:19:19;;;;;;;;;9.75;9.00;;;;;23.06;47.15;102088.91;4894896;29;46659;-83
2022/07/09 08:21:45;;;;;;;;;9.00;9.00;;;;;23.03;47.20;102070.53;4885069;29;45671;-80
2022/07/09 08:24:10;;;;;;;;;9.50;9.25;;;;;23.07;46.86;102077.25;4894143;28;45803;-81
2022/07/09 08:26:36;;;;;;;;;8.75;7.75;;;;;23.17;46.97;102077.16;4897143;29;45757;-83
2022/07/09 08:29:01;;;;;;;;;7.00;7.00;;;;;23.16;46.85;102070.94;4897749;29;46374;-81
2022/07/09 08:31:27;;;;;;;;;7.25;6.00;;;;;23.17;46.24;102056.59;4897994;29;46226;-80
2022/07/09 08:33:52;;;;;;;;;7.00;6.00;;;;;23.29;46.91;102071.41;4897967;29;45723;-81
2022/07/09 08:36:18;;;;;;;;;7.25;7.25;;;;;23.29;46.16;102066.06;4897464;29;45689;-76
2022/07/09 08:38:43;;;;;;;;;8.00;7.25;;;;;23.35;45.96;102073.47;4896656;29;46498;-82
2022/07/09 08:41:09;;;;;;;;;9.75;8.75;;;;;23.34;46.72;102066.41;4897265;29;45662;-81
2022/07/09 08:43:37;;;;;;;;;7.00;7.00;;;;;23.45;46.08;102076.03;4897296;29;45652;-79
2022/07/09 08:46:03;;;;;;;;;5.00;5.00;;;;;23.47;45.89;102079.44;4897388;29;45442;-80
2022/07/09 08:48:32;;;;;;;;;6.00;5.75;;;;;23.50;46.22;102067.56;4899937;29;46591;-82
2022/07/09 08:54:20;;;;;;;;;9.00;6.00;;;;;23.64;45.07;102069.66;4901608;29;45689;-85
2022/07/09 08:56:46;;;;;;;;;7.00;7.00;;;;;23.71;45.47;102071.53;4901132;29;45968;-87
2022/07/09 08:59:11;;;;;;;;;5.00;5.00;;;;;23.66;45.44;102043.56;4885106;29;46858;-85
2022/07/09 09:01:36;;;;;;;;;6.00;6.00;;;;;23.66;45.36;102035.53;4888381;29;48315;-85
2022/07/09 09:10:28;;;;;;;;;5.00;5.00;;;;;23.89;44.35;102057.25;4899635;29;46087;-84
2022/07/09 09:13:00;;;;;;;;;6.00;5.00;;;;;23.95;44.05;102056.59;4883958;29;47307;-83
2022/07/09 09:15:29;;;;;;;;;6.00;6.00;;;;;23.96;44.13;102043.06;4903059;29;45649;-84
2022/07/09 09:17:54;;;;;;;;;5.50;4.75;;;;;24.01;43.95;102045.25;4901036;29;45514;-87
2022/07/09 09:20:20;;;;;;;;;4.75;4.75;;;;;24.11;43.89;102040.59;4901765;29;47692;-86
2022/07/09 09:23:04;;;;;;;;;5.00;5.00;;;;;24.03;43.64;102022.66;4900365;29;48224;-86
2022/07/09 09:25:29;;;;;;;;;5.00;5.00;;;;;24.23;43.95;102052.72;4903723;29;45981;-85
2022/07/09 09:27:59;;;;;;;;;5.00;4.75;;;;;24.27;43.94;102047.88;4901572;29;46022;-84
2022/07/09 09:30:26;;;;;;;;;4.00;4.00;;;;;24.29;43.30;102043.22;4903020;29;46783;-85
2022/07/09 09:32:56;;;;;;;;;5.25;4.75;;;;;24.35;43.10;102040.69;4902107;29;46049;-84
2022/07/09 09:35:22;;;;;;;;;3.50;3.50;;;;;24.38;43.04;102045.72;4902950;29;45565;-87
2022/07/09 09:37:47;;;;;;;;;5.00;4.00;;;;;24.33;42.99;102023.13;4884852;29;45748;-87
2022/07/09 09:40:13;;;;;;;;;5.00;4.00;;;;;24.49;43.45;102053.47;4901658;29;45620;-86
2022/07/09 09:42:44;;;;;;;;;4.50;3.75;;;;;24.51;42.95;102051.44;4901690;29;46235;-83
2022/07/09 09:45:13;;;;;;;;;6.00;6.00;;;;;24.56;43.01;102050.97;4903314;29;45626;-85
2022/07/09 09:47:39;;;;;;;;;4.75;4.75;;;;;24.60;43.45;102044.28;4903374;29;45580;-85
2022/07/09 09:50:06;;;;;;;;;6.00;5.00;;;;;24.60;43.12;102047.78;4903106;29;45570;-87
2022/07/09 09:52:33;;;;;;;;;5.00;4.50;;;;;24.59;42.77;102040.75;4902494;29;46376;-89
2022/07/09 09:55:03;;;;;;;;;6.00;5.25;;;;;24.65;42.82;102045.44;4901357;29;45473;-88
2022/07/09 09:57:29;;;;;;;;;6.25;5.25;;;;;24.69;42.70;102043.25;4901838;29;45825;-84
2022/07/09 09:59:56;;;;;;;;;5.00;5.00;;;;;24.66;43.37;102025.69;4884229;29;48536;-86
2022/07/09 10:02:23;;;;;;;;;4.25;4.00;;;;;24.86;42.68;102052.16;4885066;29;48128;-89
2022/07/09 10:04:49;;;;;;;;;5.25;4.25;;;;;24.92;43.21;102046.16;4904003;29;45688;-84
2022/07/09 10:07:15;;;;;;;;;5.00;5.00;;;;;24.94;43.03;102044.16;4907612;29;45512;-81
2022/07/09 10:09:40;;;;;;;;;6.00;6.00;;;;;25.00;42.94;102051.50;4906200;28;45510;-84
2022/07/09 10:12:10;;;;;;;;;6.00;6.00;;;;;25.01;43.00;102043.31;4884626;29;47305;-85
2022/07/09 10:14:38;;;;;;;;;5.25;5.25;;;;;25.08;42.76;102041.63;4902189;29;45526;-89
2022/07/09 10:17:10;;;;;;;;;6.00;5.25;;;;;25.11;42.58;102048.50;4903497;29;45461;-90
2022/07/09 10:19:37;;;;;;;;;6.00;5.00;;;;;25.11;42.21;102035.09;4901673;29;45559;-90
2022/07/09 10:25:55;;;;;;;;;5.00;5.00;;;;;25.14;41.96;102026.72;4902169;29;45871;-87
2022/07/09 10:28:22;;;;;;;;;3.50;3.50;;;;;25.20;42.56;102020.69;4794969;29;45698;-86
2022/07/09 10:30:49;;;;;;;;;5.00;5.00;;;;;25.29;42.17;102034.91;4807560;29;47202;-85
2022/07/09 10:33:35;;;;;;;;;4.25;4.00;;;;;25.39;41.67;102039.06;4808918;29;47650;-89
2022/07/09 10:36:13;;;;;;;;;5.75;5.25;;;;;25.42;42.04;102029.88;4807513;29;45530;-91
2022/07/09 10:38:56;;;;;;;;;6.75;6.00;;;;;25.36;41.86;102014.44;4810375;29;45730;-92
2022/07/09 10:41:23;;;;;;;;;4.25;4.25;;;;;25.57;41.74;102030.84;4806408;29;48247;-91
2022/07/09 10:43:52;;;;;;;;;4.75;4.75;;;;;25.45;41.52;102002.66;4807194;29;46179;-86
2022/07/09 10:46:18;;;;;;;;;4.50;4.50;;;;;25.50;41.86;102005.66;4807793;29;45747;-88
2022/07/09 10:48:46;;;;;;;;;6.00;5.50;;;;;25.60;41.92;102000.13;4803842;29;45596;-80
2022/07/09 10:51:22;;;;;;;;;5.00;5.00;;;;;25.76;42.21;102010.81;4802781;29;46431;-80
2022/07/09 10:53:48;;;;;;;;;5.75;5.00;;;;;25.73;42.01;101995.91;4803354;29;45865;-77
2022/07/09 10:56:34;;;;;;;;;4.00;3.50;;;;;25.89;40.55;102017.31;4803673;29;45734;-80
2022/07/09 10:59:00;;;;;;;;;4.25;4.25;;;;;25.87;40.96;102000.53;4803252;29;45706;-81
2022/07/09 11:01:26;;;;;;;;;6.00;5.25;;;;;25.87;39.93;102000.53;4803312;29;45687;-80
2022/07/09 11:03:52;;;;;;;;;4.00;4.00;;;;;25.93;40.67;101998.97;4803506;29;46079;-80
2022/07/09 11:06:17;;;;;;;;;5.00;5.00;;;;;25.94;40.71;101983.72;4892882;29;45820;-79
2022/07/09 11:08:42;;;;;;;;;4.75;4.75;;;;;26.01;40.39;101990.06;4898413;29;45452;-81
2022/07/09 11:11:08;;;;;;;;;6.00;5.00;;;;;26.04;40.67;101995.91;4898370;29;45434;-81
2022/07/09 11:13:33;;;;;;;;;5.00;5.00;;;;;26.01;40.81;101980.16;4898398;29;46326;-81
2022/07/09 11:16:04;;;;;;;;;5.00;5.00;;;;;26.12;40.37;101986.97;4898309;29;45638;-81
2022/07/09 11:18:29;;;;;;;;;3.00;3.00;;;;;26.04;39.70;101990.53;4898438;29;45734;-80
2022/07/09 11:20:55;;;;;;;;;5.50;5.00;;;;;26.09;39.60;101973.88;4898443;29;46580;-81
2022/07/09 11:23:20;;;;;;;;;5.50;5.25;;;;;26.12;39.30;101977.06;4898053;29;45698;-81
2022/07/09 11:25:48;;;;;;;;;4.25;4.25;;;;;26.22;39.23;101985.75;4898577;29;45695;-79
2022/07/09 11:28:21;;;;;;;;;6.00;5.00;;;;;26.26;39.44;101981.69;4898497;29;45711;-79
2022/07/09 11:31:01;;;;;;;;;6.00;6.00;;;;;26.33;39.74;101972.94;4898969;29;46542;-81